Tuesday, January 22, 2019, 4:34 PM EST
Back to Local

KPQI, Presque Isle

Location: Presque Isle, ME, United States Lat: 46.683
Local Time: 4:34 PM EST (21:34 GMT) Lon: -68.05
Time Zone: US/Eastern Elev: 534 ft

Show me the last for .
Show Decoded

2019-01-22 15:56 METAR KPQI 222056Z AUTO 31014KT 10SM CLR M09/M21 A3024 RMK AO2 PK WND 32032/2043
                 SLP288 60000 T10941211 53026 FZRANO =
2019-01-22 14:56 METAR KPQI 221956Z AUTO 32018G23KT 10SM CLR M08/M21 A3022 RMK AO2 PK WND
                 32032/1934 SNB10E20 SLP282 P0000 T10831206 FZRANO =
2019-01-22 13:56 METAR KPQI 221856Z AUTO 32016G24KT 10SM CLR M08/M19 A3019 RMK AO2 SNE07 SLP270
                 P0000 T10781189 FZRANO =
2019-01-22 12:56 METAR KPQI 221756Z AUTO 32018G26KT 9SM -SN CLR M09/M21 A3017 RMK AO2 PK WND
                 33035/1733 SLP264 P0000 60000 T10941211 11094 21178 51022 FZRANO =
2019-01-22 11:56 METAR KPQI 221656Z AUTO 30013G32KT 7SM -SN CLR M10/M21 A3015 RMK AO2 PK WND
                 31036/1635 SLP259 P0000 T11001211 FZRANO =
2019-01-22 10:56 METAR KPQI 221556Z AUTO 31021G35KT 8SM -SN CLR M12/M22 A3012 RMK AO2 PK WND
                 31039/1526 SLP247 P0000 T11171217 FZRANO =
2019-01-22 09:56 METAR KPQI 221456Z AUTO 31025G36KT 3SM -SN CLR M13/M22 A3010 RMK AO2 PK WND
                 31036/1455 SNB49 SLP240 P0000 60000 T11331217 51038 FZRANO =
2019-01-22 08:56 METAR KPQI 221356Z AUTO 31018G24KT 10SM CLR M14/M22 A3007 RMK AO2 PK WND
                 32030/1343 SNE08B37E47 SLP232 P0000 T11441222 FZRANO =
2019-01-22 07:56 METAR KPQI 221256Z AUTO 30022G31KT 4SM -SN CLR M17/M23 A3003 RMK AO2 PK WND
                 29041/1221 SLP216 P0000 T11671228 FZRANO =
2019-01-22 06:56 METAR KPQI 221156Z AUTO 30016G23KT 8SM -SN CLR M17/M23 A2998 RMK AO2 PK WND
                 32037/1107 SNE1059B35 SLP201 P0000 60000 T11721233 11156 21172 51032 FZRANO =
2019-01-22 05:56 METAR KPQI 221056Z AUTO 30015G25KT 8SM -SN CLR M17/M23 A2995 RMK AO2 PK WND
                 32029/1046 SNB08 SLP189 P0000 T11721228 FZRANO =
2019-01-22 04:56 METAR KPQI 220956Z AUTO 31017G28KT 9SM CLR M17/M22 A2992 RMK AO2 PK WND
                 30032/0919 SNE54 SLP181 P0000 T11721222 FZRANO =
2019-01-22 03:56 METAR KPQI 220856Z AUTO 32019G27KT 8SM -SN FEW060 SCT080 BKN110 M16/M22 A2989
                 RMK AO2 PK WND 33031/0823 SLP168 P0000 60000 T11611217 51028 FZRANO =
2019-01-22 02:56 METAR KPQI 220756Z AUTO 31015G24KT 6SM -SN OVC036 M16/M20 A2987 RMK AO2 PK WND
                 32026/0717 SLP161 P0000 T11611200 FZRANO =
2019-01-22 01:56 METAR KPQI 220656Z AUTO 32012G18KT 3SM -SN SCT027 OVC038 M16/M19 A2984 RMK AO2
                 SLP152 P0000 T11561194 FZRANO =
2019-01-22 00:56 METAR KPQI 220556Z AUTO 32015G19KT 4SM -SN SCT026 OVC040 M16/M19 A2980 RMK AO2
                 SLP140 P0000 60000 T11561189 11150 21156 52030 FZRANO =
2019-01-22 00:40 METAR KPQI 220540Z AUTO 32013G19KT 4SM -SN BKN026 BKN032 OVC042 M16/M18 A2979
                 RMK AO2 P0000 FZRANO =
2019-01-21 23:56 METAR KPQI 220456Z AUTO 32015G28KT 3SM -SN OVC042 M15/M19 A2977 RMK AO2 PK WND
                 32028/0455 SLP129 P0000 T11501189 411171156 FZRANO =
2019-01-21 22:56 METAR KPQI 220356Z AUTO 32012KT 7SM -SN OVC060 M15/M19 A2975 RMK AO2 PK WND
                 33026/0342 SLP121 P0000 T11501189 FZRANO =
2019-01-21 21:56 METAR KPQI 220256Z AUTO 32013G21KT 8SM -SN OVC060 M15/M19 A2971 RMK AO2 PK WND
                 32026/0228 SLP110 P0000 60000 T11501194 53014 FZRANO =
2019-01-21 20:56 METAR KPQI 220156Z AUTO 33016G22KT 8SM -SN OVC060 M15/M19 A2969 RMK AO2 SLP103
                 P0000 T11501194 FZRANO =
2019-01-21 19:56 METAR KPQI 220056Z AUTO 32013KT 8SM -SN OVC060 M15/M19 A2968 RMK AO2 SLP098
                 P0000 T11501194 FZRANO =
2019-01-21 18:56 METAR KPQI 212356Z AUTO 32012KT 9SM -SN OVC060 M16/M19 A2967 RMK AO2 SLP096
                 P0000 60000 T11561194 11139 21156 51022 FZRANO =
2019-01-21 17:56 METAR KPQI 212256Z AUTO 32010G18KT 9SM -SN OVC055 M16/M19 A2966 RMK AO2 SLP092
                 P0000 T11561194 FZRANO =
2019-01-21 16:56 METAR KPQI 212156Z AUTO 31013KT 9SM -SN OVC055 M16/M19 A2964 RMK AO2 SLP085
                 P0000 T11561194 FZRANO =

Support USWX by starting your Amazon purchase here.